Kezdőlap
METAR-TAF:

METAR-TAF

Repülőterek :

Zaporizzsja, Ukrajna

földrajzi szélesség: 47-52-02N, földrajzi hosszúság: 035-18-59E, magasság: 114 m

Jelenlegi meteorológiai megfigyelések

A jelentés 16 perccel ezelõtt készült, 01:30 UTC
Nyugat-északnyugati szél 8 kt
Hőmérséklet 8°C
Páratartalom 66%
Légköri nyomás 1026 hPa
Látótávolság 10 km, vagy több
felhőtlen 1500 m magasságban, és nincs gomolyfelhõ

METAR: UKDE 250130Z 30004MPS CAVOK 08/02 Q1026 R02R/090070 NOSIG

Idő: 04:46 (01:46 UTC)

Előrejelzés

A jelentés 2 órával és 45 perccel ezelõtt készült, 23:01 UTC
Az előrejelzés 25-én 00 óra UTC és 25-én 09 óra UTC között érvényes
Nyugati szél 6 kt
Látótávolság 10 km, vagy több
felhőtlen 1500 m magasságban, és nincs gomolyfelhõ

TAF: UKDE 242301Z 2500/2509 27003MPS CAVOK

Meteorológiai megfigyelések és előrejelzések több, mint 4000 repülőtéren (METAR és TAF jelentéseket).

A térképen piros és sárga pontok jelzik az elérhető meteorológiai állomásokat.

Mozgassa az egeret a pont fölött, hogy megjelenjen az állomás neve.

Azután kattintson az időjárási megfigyelések és előrejelzések megtekintéséhez.

A térkép megváltoztatása: kattintson a fekete keresztel jelölt zöld gombra ráközelítéshez, a vonallal jelölt zöld gombra távolításhoz, vagy a zöld nyilakra a szomszédos térképek eléréséhez.


METAR-TAF: